Time;durP1;ratioP1;P1;durP2;ratioP2;P2;SDS_P1;SDS_P2;PMS_P1;PMS_P2;Temp;Humidity;BMP_temperature;BMP_pressure;BME280_temperature;BME280_humidity;BME280_pressure;Samples;Min_cycle;Max_cycle;Signal;HPM_P1;HPM_P2
2023/09/25 00:01:33;;;;;;;1.40;1.00;;;25.40;75.60;;;;;;5096185;28;20447;-86
2023/09/25 00:04:01;;;;;;;1.20;1.00;;;25.40;74.80;;;;;;5096106;28;20432;-86
2023/09/25 00:06:29;;;;;;;1.23;1.00;;;25.40;74.90;;;;;;5096011;28;20427;-87
2023/09/25 00:08:55;;;;;;;1.40;1.03;;;25.40;74.80;;;;;;5096059;28;20435;-87
2023/09/25 00:11:22;;;;;;;1.30;1.20;;;25.40;74.80;;;;;;5095829;28;20430;-87
2023/09/25 00:13:50;;;;;;;1.17;1.00;;;25.40;74.70;;;;;;5095884;28;20918;-86
2023/09/25 00:16:17;;;;;;;1.30;0.90;;;25.40;74.60;;;;;;5095831;28;20427;-86
2023/09/25 00:18:44;;;;;;;1.50;1.23;;;25.40;74.80;;;;;;5095814;28;20824;-86
2023/09/25 00:21:12;;;;;;;1.47;0.93;;;25.40;75.40;;;;;;5095780;28;20918;-86
2023/09/25 00:23:39;;;;;;;2.03;0.80;;;25.40;74.60;;;;;;5095741;28;20926;-87
2023/09/25 00:26:07;;;;;;;1.87;1.13;;;25.40;74.60;;;;;;5095670;28;20436;-86
2023/09/25 00:28:34;;;;;;;1.20;1.10;;;25.40;75.50;;;;;;5095673;28;20518;-86
2023/09/25 00:31:01;;;;;;;1.53;1.00;;;25.40;74.70;;;;;;5095538;28;20498;-86
2023/09/25 00:33:28;;;;;;;1.10;1.00;;;25.40;74.70;;;;;;5095476;28;20840;-86
2023/09/25 00:35:55;;;;;;;1.10;0.90;;;25.40;74.70;;;;;;5095552;28;20914;-86
2023/09/25 00:38:23;;;;;;;1.30;1.10;;;25.40;74.60;;;;;;5095400;28;20839;-87
2023/09/25 00:40:50;;;;;;;1.10;0.90;;;25.40;74.60;;;;;;5095509;28;20436;-86
2023/09/25 00:43:17;;;;;;;1.33;1.00;;;25.40;74.50;;;;;;5095444;28;20518;-86
2023/09/25 00:45:46;;;;;;;1.13;0.80;;;25.40;74.50;;;;;;5094794;28;20463;-86
2023/09/25 00:48:20;;;;;;;1.20;0.90;;;25.40;74.50;;;;;;5095172;28;20487;-86
2023/09/25 00:50:48;;;;;;;1.30;1.20;;;25.40;74.40;;;;;;5095478;28;20435;-87
2023/09/25 00:53:16;;;;;;;1.20;1.00;;;25.30;74.50;;;;;;5095087;28;20844;-86
2023/09/25 00:55:44;;;;;;;1.23;0.87;;;25.40;74.70;;;;;;5095126;28;20523;-86
2023/09/25 00:58:12;;;;;;;1.40;1.13;;;25.30;74.40;;;;;;5094936;28;20483;-86
2023/09/25 01:00:39;;;;;;;1.30;1.10;;;25.40;74.40;;;;;;5094920;28;20462;-86
2023/09/25 01:03:06;;;;;;;1.70;1.07;;;25.30;74.20;;;;;;5094930;28;20447;-86
2023/09/25 01:05:37;;;;;;;4.07;0.90;;;25.40;74.50;;;;;;5095026;28;20839;-86
2023/09/25 01:08:04;;;;;;;1.20;1.00;;;25.40;74.40;;;;;;5094880;28;20459;-86
2023/09/25 01:10:31;;;;;;;2.13;1.23;;;25.40;74.40;;;;;;5094794;28;20478;-86
2023/09/25 01:13:01;;;;;;;1.37;1.13;;;25.30;74.30;;;;;;5094696;28;20938;-86
2023/09/25 01:15:28;;;;;;;1.73;1.10;;;25.30;75.20;;;;;;5094514;28;20435;-86
2023/09/25 01:17:56;;;;;;;1.30;1.20;;;25.30;74.30;;;;;;5094675;28;20486;-86
2023/09/25 01:20:23;;;;;;;1.37;0.90;;;25.30;74.30;;;;;;5094520;28;20474;-86
2023/09/25 01:22:53;;;;;;;1.20;1.00;;;25.30;74.30;;;;;;5094577;28;20456;-86
2023/09/25 01:25:22;;;;;;;1.77;0.80;;;25.30;74.40;;;;;;5094715;28;20534;-86
2023/09/25 01:27:49;;;;;;;1.10;0.83;;;25.30;74.30;;;;;;5094576;28;20471;-86
2023/09/25 01:30:17;;;;;;;1.40;1.00;;;25.30;74.30;;;;;;5094367;28;20448;-87
2023/09/25 01:32:46;;;;;;;1.33;1.10;;;25.30;74.40;;;;;;5094369;28;20467;-86
2023/09/25 01:35:15;;;;;;;1.47;1.17;;;25.30;74.30;;;;;;5094294;28;20436;-86
2023/09/25 01:37:43;;;;;;;1.83;1.20;;;25.30;74.30;;;;;;5094305;28;20981;-86
2023/09/25 01:40:15;;;;;;;1.60;1.07;;;25.30;74.40;;;;;;5094288;28;20990;-86
2023/09/25 01:42:42;;;;;;;1.80;1.10;;;25.20;74.20;;;;;;5094163;28;20436;-86
2023/09/25 01:45:10;;;;;;;1.20;1.07;;;25.30;74.20;;;;;;5094388;28;20435;-87
2023/09/25 01:47:39;;;;;;;1.20;1.00;;;25.20;74.30;;;;;;5094297;28;20444;-87
2023/09/25 01:50:08;;;;;;;2.87;1.30;;;25.30;74.30;;;;;;5094205;28;20435;-86
2023/09/25 01:52:36;;;;;;;1.43;1.03;;;25.20;74.20;;;;;;5093969;28;20436;-86
2023/09/25 01:55:03;;;;;;;1.23;1.10;;;25.20;74.10;;;;;;5093907;28;20922;-86
2023/09/25 01:57:32;;;;;;;1.47;1.10;;;25.20;74.20;;;;;;5093279;28;20471;-86
2023/09/25 01:59:59;;;;;;;1.20;1.00;;;25.20;74.20;;;;;;5093465;28;20817;-86
2023/09/25 02:02:25;;;;;;;1.20;1.00;;;25.20;73.90;;;;;;5093983;28;20530;-86
2023/09/25 02:04:52;;;;;;;1.40;1.00;;;25.30;73.80;;;;;;5094017;28;20435;-87
2023/09/25 02:07:20;;;;;;;1.30;1.00;;;25.20;74.00;;;;;;5093834;28;20442;-86
2023/09/25 02:09:47;;;;;;;1.10;0.97;;;25.20;73.70;;;;;;5093672;28;20431;-86
2023/09/25 02:12:14;;;;;;;1.20;0.97;;;25.20;73.80;;;;;;5093519;28;20434;-87
2023/09/25 02:14:42;;;;;;;1.30;1.07;;;25.20;73.80;;;;;;5093663;28;20427;-86
2023/09/25 02:17:09;;;;;;;1.70;1.40;;;25.20;73.80;;;;;;5093739;28;20791;-86
2023/09/25 02:19:36;;;;;;;1.20;1.10;;;25.20;73.80;;;;;;5093435;28;21036;-86
2023/09/25 02:22:06;;;;;;;1.30;1.17;;;25.20;73.80;;;;;;5093727;28;20818;-86
2023/09/25 02:24:33;;;;;;;1.50;1.30;;;25.20;73.60;;;;;;5093447;28;20440;-86
2023/09/25 02:27:00;;;;;;;1.33;1.20;;;25.20;73.60;;;;;;5093494;28;20436;-86
2023/09/25 02:29:27;;;;;;;1.70;1.30;;;25.20;73.60;;;;;;5093335;28;20526;-86
2023/09/25 02:31:56;;;;;;;1.50;1.03;;;25.20;73.70;;;;;;5093510;28;20432;-86
2023/09/25 02:34:23;;;;;;;1.30;0.90;;;25.20;73.50;;;;;;5093507;28;20790;-86
2023/09/25 02:36:50;;;;;;;1.10;1.00;;;25.20;73.60;;;;;;5093350;28;20481;-86
2023/09/25 02:39:17;;;;;;;1.60;1.30;;;25.20;73.80;;;;;;5093275;28;20557;-86
2023/09/25 02:41:44;;;;;;;1.70;1.23;;;25.20;73.60;;;;;;5093258;28;20427;-86
2023/09/25 02:44:10;;;;;;;2.23;1.00;;;25.20;73.60;;;;;;5093425;28;20442;-86
2023/09/25 02:46:37;;;;;;;1.20;0.90;;;25.20;73.50;;;;;;5093237;28;20801;-86
2023/09/25 02:49:05;;;;;;;1.30;1.10;;;25.20;73.70;;;;;;5093386;28;20454;-86
2023/09/25 02:51:32;;;;;;;1.20;0.90;;;25.20;73.40;;;;;;5093277;28;20440;-86
2023/09/25 02:53:59;;;;;;;1.17;1.00;;;25.20;73.50;;;;;;5093037;28;20490;-86
2023/09/25 02:56:26;;;;;;;1.60;1.17;;;25.20;73.60;;;;;;5093218;28;20436;-86
2023/09/25 02:58:53;;;;;;;1.10;0.90;;;25.10;73.50;;;;;;5093049;28;20487;-86
2023/09/25 03:01:19;;;;;;;1.10;0.90;;;25.20;73.50;;;;;;5092978;28;20966;-86
2023/09/25 03:03:46;;;;;;;1.10;1.00;;;25.20;73.50;;;;;;5093086;28;20530;-86
2023/09/25 03:06:14;;;;;;;1.10;0.90;;;25.10;73.50;;;;;;5093055;28;20445;-86
2023/09/25 03:08:41;;;;;;;4.13;0.80;;;25.20;73.70;;;;;;5093091;28;20533;-86
2023/09/25 03:11:08;;;;;;;2.23;1.00;;;25.10;73.60;;;;;;5097074;28;20550;-86
2023/09/25 03:13:35;;;;;;;1.60;1.10;;;25.10;73.40;;;;;;5096978;28;20530;-86
2023/09/25 03:16:02;;;;;;;1.53;1.10;;;25.10;73.50;;;;;;5097126;28;20814;-86
2023/09/25 03:18:28;;;;;;;1.60;1.30;;;25.10;73.40;;;;;;5096902;28;20596;-86
2023/09/25 03:20:55;;;;;;;1.20;0.97;;;25.10;73.70;;;;;;5097075;28;20435;-86
2023/09/25 03:23:23;;;;;;;1.40;1.20;;;25.10;73.50;;;;;;5096891;28;20442;-86
2023/09/25 03:25:50;;;;;;;1.30;1.00;;;25.10;73.50;;;;;;5096909;28;20538;-86
2023/09/25 03:28:17;;;;;;;1.40;1.30;;;25.10;73.50;;;;;;5096803;28;20798;-86
2023/09/25 03:30:45;;;;;;;1.20;1.03;;;25.10;73.50;;;;;;5096814;28;20452;-86
2023/09/25 03:33:12;;;;;;;1.30;1.20;;;25.10;73.50;;;;;;5096623;28;20525;-86
2023/09/25 03:35:39;;;;;;;1.30;0.90;;;25.00;73.30;;;;;;5096656;28;20428;-86
2023/09/25 03:38:06;;;;;;;1.30;1.00;;;25.00;73.40;;;;;;5096713;28;20578;-86
2023/09/25 03:40:34;;;;;;;1.27;1.13;;;25.00;73.30;;;;;;5096597;28;20518;-86
2023/09/25 03:43:01;;;;;;;1.40;1.10;;;25.10;73.60;;;;;;5096446;28;20948;-86
2023/09/25 03:45:28;;;;;;;1.17;1.07;;;25.00;73.40;;;;;;5096626;28;20432;-86
2023/09/25 03:47:54;;;;;;;1.80;1.23;;;25.00;73.30;;;;;;5096425;28;20443;-86
2023/09/25 03:50:21;;;;;;;2.07;1.20;;;25.10;73.40;;;;;;5096426;28;20431;-86
2023/09/25 03:52:48;;;;;;;1.20;1.00;;;25.00;73.40;;;;;;5096248;28;20519;-86
2023/09/25 03:55:15;;;;;;;1.10;0.90;;;25.00;74.20;;;;;;5096413;28;20526;-86
2023/09/25 03:57:43;;;;;;;1.50;1.20;;;25.00;73.40;;;;;;5096251;28;20999;-86
2023/09/25 04:00:13;;;;;;;1.33;1.10;;;25.00;73.20;;;;;;5096216;28;20530;-86
2023/09/25 04:02:40;;;;;;;1.97;1.10;;;25.00;73.30;;;;;;5096039;28;20454;-86
2023/09/25 04:05:08;;;;;;;4.80;1.67;;;25.00;73.30;;;;;;5096082;28;20435;-86
2023/09/25 04:07:35;;;;;;;1.97;1.17;;;25.00;73.20;;;;;;5096165;28;20488;-86
2023/09/25 04:10:03;;;;;;;1.63;1.20;;;25.00;73.30;;;;;;5095966;28;20446;-86
2023/09/25 04:12:30;;;;;;;1.17;0.90;;;25.00;73.30;;;;;;5095826;28;20444;-86
2023/09/25 04:14:58;;;;;;;1.57;1.10;;;25.00;73.40;;;;;;5096101;28;20443;-86
2023/09/25 04:17:25;;;;;;;1.60;1.20;;;25.00;73.40;;;;;;5096006;28;20993;-88
2023/09/25 04:19:52;;;;;;;1.30;1.13;;;25.00;73.30;;;;;;5095693;28;20487;-88
2023/09/25 04:22:20;;;;;;;1.40;1.00;;;25.00;73.40;;;;;;5094728;28;20805;-88
2023/09/25 04:24:47;;;;;;;1.43;1.00;;;25.00;73.30;;;;;;5095821;28;20447;-88
2023/09/25 04:27:14;;;;;;;1.40;1.03;;;25.00;73.30;;;;;;5095912;28;20444;-88
2023/09/25 04:29:41;;;;;;;1.10;0.90;;;25.00;73.40;;;;;;5095540;28;20459;-88
2023/09/25 04:32:09;;;;;;;2.53;1.03;;;25.00;73.40;;;;;;5095508;28;20440;-88
2023/09/25 04:34:37;;;;;;;1.30;1.20;;;25.00;73.40;;;;;;5095570;28;20435;-88
2023/09/25 04:37:05;;;;;;;1.37;0.90;;;25.00;73.40;;;;;;5095506;28;20463;-88
2023/09/25 04:39:32;;;;;;;1.10;0.80;;;24.90;73.30;;;;;;5095450;28;20563;-88
2023/09/25 04:42:00;;;;;;;1.10;0.97;;;24.90;73.10;;;;;;5095435;28;20443;-88
2023/09/25 04:44:27;;;;;;;1.50;1.00;;;24.90;73.30;;;;;;5095357;28;20440;-88
2023/09/25 04:46:53;;;;;;;1.20;1.00;;;25.00;73.30;;;;;;5095314;28;20436;-88
2023/09/25 04:49:22;;;;;;;1.20;1.00;;;25.00;73.30;;;;;;5095272;28;20440;-86
2023/09/25 04:51:48;;;;;;;1.27;0.97;;;25.00;73.30;;;;;;5095037;28;20940;-86
2023/09/25 04:54:15;;;;;;;1.50;1.10;;;25.00;74.20;;;;;;5095169;28;20442;-86
2023/09/25 04:56:42;;;;;;;1.10;0.90;;;25.00;73.40;;;;;;5095107;28;20438;-86
2023/09/25 04:59:09;;;;;;;1.37;1.00;;;25.00;73.20;;;;;;5094889;28;20495;-86
2023/09/25 05:01:36;;;;;;;1.10;0.90;;;24.90;73.20;;;;;;5095039;28;20790;-86
2023/09/25 05:04:03;;;;;;;1.20;0.93;;;24.90;74.10;;;;;;5094974;28;20431;-86
2023/09/25 05:06:31;;;;;;;1.40;1.10;;;24.90;73.30;;;;;;5095041;28;20471;-86
2023/09/25 05:08:58;;;;;;;1.10;1.00;;;24.90;73.10;;;;;;5094802;28;20801;-86
2023/09/25 05:11:24;;;;;;;1.30;1.00;;;24.90;73.30;;;;;;5094834;28;20486;-86
2023/09/25 05:13:51;;;;;;;1.67;1.00;;;24.90;73.00;;;;;;5094591;28;20514;-86
2023/09/25 05:16:18;;;;;;;1.67;0.90;;;24.90;73.10;;;;;;5094857;28;20459;-86
2023/09/25 05:18:45;;;;;;;1.40;1.10;;;24.90;73.20;;;;;;5094538;28;20491;-86
2023/09/25 05:21:12;;;;;;;1.30;1.07;;;24.90;73.20;;;;;;5094562;28;20441;-86
2023/09/25 05:23:40;;;;;;;1.47;1.07;;;24.90;73.30;;;;;;5094658;28;20980;-86
2023/09/25 05:26:07;;;;;;;1.10;0.90;;;24.90;73.10;;;;;;5094660;28;20447;-86
2023/09/25 05:28:33;;;;;;;1.30;1.07;;;24.90;73.20;;;;;;5094991;28;20436;-86
2023/09/25 05:31:00;;;;;;;1.37;0.90;;;24.90;73.20;;;;;;5094492;28;20488;-86
2023/09/25 05:33:27;;;;;;;1.10;0.93;;;24.90;73.20;;;;;;5094171;28;20431;-86
2023/09/25 05:35:55;;;;;;;1.27;0.97;;;24.90;73.30;;;;;;5094371;28;20509;-86
2023/09/25 05:38:21;;;;;;;1.20;1.10;;;24.80;73.90;;;;;;5094300;28;20479;-86
2023/09/25 05:40:50;;;;;;;1.20;1.10;;;24.80;73.10;;;;;;5094298;28;20428;-86
2023/09/25 05:43:16;;;;;;;1.20;1.00;;;24.80;73.00;;;;;;5094326;28;20440;-86
2023/09/25 05:45:43;;;;;;;1.20;1.10;;;24.80;73.00;;;;;;5094181;28;20438;-86
2023/09/25 05:48:10;;;;;;;1.17;1.00;;;24.80;73.00;;;;;;5094372;28;20919;-86
2023/09/25 05:50:37;;;;;;;1.10;0.90;;;24.80;72.90;;;;;;5094181;28;20438;-87
2023/09/25 05:53:04;;;;;;;1.17;1.00;;;24.90;73.10;;;;;;5093876;28;20431;-86
2023/09/25 05:55:31;;;;;;;1.30;1.10;;;24.80;73.10;;;;;;5094067;28;20438;-86
2023/09/25 05:57:59;;;;;;;1.77;1.00;;;24.90;73.20;;;;;;5093955;28;20462;-86
2023/09/25 06:00:26;;;;;;;1.53;1.20;;;24.90;73.20;;;;;;5093891;28;21017;-86
2023/09/25 06:02:53;;;;;;;1.37;1.27;;;24.80;73.00;;;;;;5093885;28;20442;-86
2023/09/25 06:05:20;;;;;;;1.83;1.23;;;24.80;72.90;;;;;;5093983;28;21022;-87
2023/09/25 06:07:47;;;;;;;1.40;0.93;;;24.80;72.90;;;;;;5093970;28;20453;-86
2023/09/25 06:10:15;;;;;;;1.23;1.10;;;24.90;73.00;;;;;;5093650;28;20981;-86
2023/09/25 06:12:43;;;;;;;1.10;0.93;;;24.90;73.10;;;;;;5093546;28;20436;-86
2023/09/25 06:15:12;;;;;;;1.17;1.03;;;24.80;72.90;;;;;;5093591;28;20442;-86
2023/09/25 06:17:39;;;;;;;2.43;1.23;;;24.80;73.10;;;;;;5093731;28;20500;-86
2023/09/25 06:20:14;;;;;;;1.20;1.00;;;24.80;72.90;;;;;;5093496;28;20574;-86
2023/09/25 06:22:43;;;;;;;1.70;1.23;;;24.90;73.20;;;;;;5093506;28;20459;-86
2023/09/25 06:25:11;;;;;;;1.10;0.90;;;24.80;73.00;;;;;;5093604;28;20435;-86
2023/09/25 06:27:39;;;;;;;1.63;0.90;;;24.90;74.10;;;;;;5093523;28;20427;-86
2023/09/25 06:30:09;;;;;;;1.37;1.13;;;24.90;73.20;;;;;;5093506;28;20546;-86
2023/09/25 06:32:37;;;;;;;1.50;1.00;;;24.90;73.10;;;;;;5093300;28;20791;-86
2023/09/25 06:35:06;;;;;;;1.50;1.00;;;24.90;73.10;;;;;;5093579;28;20435;-86
2023/09/25 06:37:34;;;;;;;1.20;1.00;;;24.80;73.00;;;;;;5093588;28;20432;-86
2023/09/25 06:40:03;;;;;;;2.80;1.00;;;24.80;73.10;;;;;;5093177;28;20487;-86
2023/09/25 06:42:30;;;;;;;2.00;0.97;;;24.90;73.30;;;;;;5093290;28;20439;-86
2023/09/25 06:44:57;;;;;;;1.10;0.90;;;24.90;73.20;;;;;;5092747;28;20522;-87
2023/09/25 06:47:23;;;;;;;1.20;0.93;;;24.90;73.20;;;;;;5093242;28;20526;-86
2023/09/25 06:49:52;;;;;;;1.17;0.90;;;24.90;73.20;;;;;;5093459;28;20834;-86
2023/09/25 06:52:18;;;;;;;1.37;1.10;;;24.90;73.30;;;;;;5093191;28;20527;-87
2023/09/25 06:54:45;;;;;;;1.30;1.00;;;24.90;73.30;;;;;;5093209;28;20530;-87
2023/09/25 06:57:12;;;;;;;1.13;0.93;;;24.90;73.30;;;;;;5093178;28;20440;-86
2023/09/25 06:59:39;;;;;;;1.10;0.80;;;24.90;73.30;;;;;;5092941;28;20487;-86
2023/09/25 07:02:07;;;;;;;1.60;1.30;;;24.90;73.10;;;;;;5093109;28;20424;-86
2023/09/25 07:04:33;;;;;;;1.30;1.10;;;25.00;73.10;;;;;;5093206;28;20481;-86
2023/09/25 07:07:01;;;;;;;1.40;1.10;;;24.90;73.10;;;;;;5093104;28;20432;-86
2023/09/25 07:09:28;;;;;;;1.13;0.90;;;24.90;73.10;;;;;;5093233;28;20791;-86
2023/09/25 07:11:55;;;;;;;1.20;0.80;;;25.00;73.20;;;;;;5093067;28;20522;-86
2023/09/25 07:14:22;;;;;;;1.10;0.90;;;25.00;73.20;;;;;;5093035;28;20437;-86
2023/09/25 07:16:51;;;;;;;1.13;1.00;;;25.00;73.90;;;;;;5093081;28;20435;-86
2023/09/25 07:19:18;;;;;;;1.40;1.03;;;25.00;73.00;;;;;;5092851;28;20496;-86
2023/09/25 07:21:45;;;;;;;1.60;1.30;;;25.00;73.10;;;;;;5093071;28;21601;-86
2023/09/25 07:24:13;;;;;;;1.20;1.10;;;25.00;73.10;;;;;;5092921;28;20530;-86
2023/09/25 07:26:40;;;;;;;1.27;1.07;;;25.00;73.10;;;;;;5092993;28;20462;-86
2023/09/25 07:29:06;;;;;;;1.33;0.90;;;25.00;73.10;;;;;;5092953;28;20997;-86
2023/09/25 07:31:33;;;;;;;1.30;1.00;;;25.00;73.20;;;;;;5092823;28;20436;-86
2023/09/25 07:34:00;;;;;;;2.80;1.20;;;25.00;73.20;;;;;;5092871;28;20440;-87
2023/09/25 07:36:27;;;;;;;1.10;0.90;;;25.00;73.10;;;;;;5092836;28;20438;-86
2023/09/25 07:38:54;;;;;;;1.20;0.83;;;25.10;73.30;;;;;;5092792;28;20527;-86
2023/09/25 07:41:24;;;;;;;1.40;0.90;;;25.00;73.30;;;;;;5093068;28;20447;-86
2023/09/25 07:43:50;;;;;;;1.10;0.97;;;25.10;73.50;;;;;;5092727;28;20432;-86
2023/09/25 07:46:18;;;;;;;1.20;0.90;;;25.10;73.50;;;;;;5092728;28;20442;-86
2023/09/25 07:48:45;;;;;;;1.57;0.90;;;25.10;73.70;;;;;;5092805;28;20915;-86
2023/09/25 07:51:12;;;;;;;1.20;1.10;;;25.10;73.70;;;;;;5092718;28;20439;-86
2023/09/25 07:53:44;;;;;;;1.10;0.90;;;25.10;73.70;;;;;;5092476;28;21002;-87
2023/09/25 07:56:11;;;;;;;1.20;1.00;;;25.10;73.50;;;;;;5093447;28;20784;-86
2023/09/25 07:58:40;;;;;;;1.10;0.90;;;25.10;73.30;;;;;;5096474;28;20519;-86
2023/09/25 08:01:08;;;;;;;1.20;0.93;;;25.10;73.40;;;;;;5096123;28;20483;-86
2023/09/25 08:03:37;;;;;;;1.27;0.87;;;25.20;73.50;;;;;;5096117;28;20997;-86
2023/09/25 08:06:05;;;;;;;1.30;1.07;;;25.20;74.40;;;;;;5096142;28;20497;-86
2023/09/25 08:08:32;;;;;;;1.47;1.10;;;25.20;73.60;;;;;;5096004;28;20444;-86
2023/09/25 08:10:59;;;;;;;1.30;0.97;;;25.20;73.70;;;;;;5096031;28;20538;-86
2023/09/25 08:13:26;;;;;;;1.13;1.00;;;25.20;73.70;;;;;;5095843;28;20435;-87
2023/09/25 08:15:55;;;;;;;1.10;0.80;;;25.20;73.70;;;;;;5096235;28;20510;-86
2023/09/25 08:18:21;;;;;;;1.30;1.17;;;25.30;73.80;;;;;;5095863;28;20444;-86
2023/09/25 08:20:49;;;;;;;1.10;0.80;;;25.30;73.80;;;;;;5095845;28;20522;-86
2023/09/25 08:23:15;;;;;;;1.50;0.83;;;25.30;73.80;;;;;;5095705;28;20439;-86
2023/09/25 08:25:42;;;;;;;1.10;0.90;;;25.30;73.80;;;;;;5095748;28;20526;-86
2023/09/25 08:28:09;;;;;;;1.40;1.10;;;25.40;73.80;;;;;;5095857;28;20438;-86
2023/09/25 08:30:36;;;;;;;1.10;0.87;;;25.30;73.70;;;;;;5095538;28;20451;-87
2023/09/25 08:33:04;;;;;;;1.30;1.00;;;25.40;73.70;;;;;;5095506;28;20475;-86
2023/09/25 08:35:31;;;;;;;1.30;1.00;;;25.40;73.70;;;;;;5095671;28;20926;-86
2023/09/25 08:37:58;;;;;;;1.10;0.87;;;25.40;73.70;;;;;;5095643;28;20522;-86
2023/09/25 08:40:24;;;;;;;1.30;1.10;;;25.50;74.60;;;;;;5095426;28;20842;-86
2023/09/25 08:42:52;;;;;;;1.30;1.10;;;25.50;73.70;;;;;;5095375;28;20856;-86
2023/09/25 08:45:21;;;;;;;1.30;1.00;;;25.50;73.60;;;;;;5095533;28;20439;-87
2023/09/25 08:47:47;;;;;;;1.30;1.03;;;25.50;73.60;;;;;;5095392;28;20435;-86
2023/09/25 08:50:16;;;;;;;1.00;0.80;;;25.50;73.60;;;;;;5095368;28;20435;-87
2023/09/25 08:52:43;;;;;;;1.60;1.40;;;25.60;73.60;;;;;;5095399;28;20522;-87
2023/09/25 08:55:10;;;;;;;1.10;1.00;;;25.60;73.60;;;;;;5095324;28;20431;-86
2023/09/25 08:57:37;;;;;;;1.37;1.00;;;25.60;73.60;;;;;;5095289;28;20523;-86
2023/09/25 09:00:11;;;;;;;2.03;1.20;;;25.70;73.60;;;;;;5094971;28;20602;-86
2023/09/25 09:02:40;;;;;;;1.20;1.00;;;25.70;73.60;;;;;;5095009;28;20497;-86
2023/09/25 09:05:07;;;;;;;1.10;0.90;;;25.70;73.50;;;;;;5095032;28;20448;-86
2023/09/25 09:07:35;;;;;;;1.30;1.10;;;25.80;73.60;;;;;;5094638;28;20443;-87
2023/09/25 09:10:02;;;;;;;1.20;0.80;;;25.80;73.50;;;;;;5094826;28;20446;-87
2023/09/25 09:12:29;;;;;;;1.30;1.10;;;25.80;73.40;;;;;;5094839;28;20978;-86
2023/09/25 09:14:56;;;;;;;1.37;1.10;;;25.80;73.30;;;;;;5094900;28;20439;-86
2023/09/25 09:17:27;;;;;;;1.20;1.00;;;25.80;73.30;;;;;;5094777;28;20510;-87
2023/09/25 09:19:54;;;;;;;1.27;1.00;;;25.90;74.20;;;;;;5094431;28;21048;-87
2023/09/25 09:22:21;;;;;;;2.27;1.40;;;25.90;73.40;;;;;;5094766;28;20968;-86
2023/09/25 09:24:51;;;;;;;1.10;0.90;;;25.90;73.30;;;;;;5094571;28;20443;-87
2023/09/25 09:27:21;;;;;;;1.30;1.00;;;26.00;73.40;;;;;;5094557;28;20528;-86
2023/09/25 09:29:52;;;;;;;1.27;1.03;;;26.00;73.30;;;;;;5094529;28;20452;-87
2023/09/25 09:32:19;;;;;;;1.13;0.90;;;26.00;73.30;;;;;;5094429;28;20452;-87
2023/09/25 09:34:48;;;;;;;1.20;1.03;;;26.10;73.30;;;;;;5094458;28;20442;-86
2023/09/25 09:37:15;;;;;;;1.30;1.07;;;26.10;73.30;;;;;;5094642;28;20845;-86
2023/09/25 09:39:45;;;;;;;1.20;1.00;;;26.10;73.30;;;;;;5094405;28;20573;-87
2023/09/25 09:42:15;;;;;;;1.30;0.90;;;26.10;73.30;;;;;;5094334;28;20450;-86
2023/09/25 09:44:43;;;;;;;1.27;1.17;;;26.20;73.40;;;;;;5094284;28;20986;-87
2023/09/25 09:47:10;;;;;;;1.20;0.90;;;26.20;73.30;;;;;;5094176;28;20436;-87
2023/09/25 09:49:39;;;;;;;1.20;0.90;;;26.30;73.30;;;;;;5094376;28;20436;-86
2023/09/25 09:52:07;;;;;;;1.40;1.00;;;26.30;73.30;;;;;;5094015;28;20443;-87
2023/09/25 09:54:37;;;;;;;1.30;1.00;;;26.30;73.10;;;;;;5094028;28;20473;-87
2023/09/25 09:57:04;;;;;;;1.20;0.90;;;26.30;73.20;;;;;;5094050;28;20821;-87
2023/09/25 09:59:32;;;;;;;1.20;1.00;;;26.30;73.10;;;;;;5093786;28;20455;-87
2023/09/25 10:02:01;;;;;;;1.30;0.90;;;26.40;73.30;;;;;;5093894;28;20438;-87
2023/09/25 10:04:28;;;;;;;1.10;0.90;;;26.40;73.30;;;;;;5093989;28;20531;-87
2023/09/25 10:07:00;;;;;;;1.30;1.10;;;26.40;73.30;;;;;;5093794;28;20440;-87
2023/09/25 10:09:27;;;;;;;1.20;1.00;;;26.40;73.30;;;;;;5094015;28;20514;-87
2023/09/25 10:11:55;;;;;;;1.30;1.10;;;26.50;73.30;;;;;;5093589;28;20447;-86
2023/09/25 10:14:23;;;;;;;1.13;0.90;;;26.50;73.20;;;;;;5093622;28;20462;-87
2023/09/25 10:17:03;;;;;;;1.33;1.10;;;26.50;74.00;;;;;;5093821;28;20489;-87
2023/09/25 10:19:52;;;;;;;1.20;0.93;;;26.50;73.20;;;;;;5092775;28;20906;-87
2023/09/25 10:22:21;;;;;;;1.30;1.20;;;26.60;73.40;;;;;;5093498;28;20443;-87
2023/09/25 10:24:54;;;;;;;1.17;0.93;;;26.60;73.30;;;;;;5093592;28;20527;-87
2023/09/25 10:27:20;;;;;;;1.30;1.10;;;26.60;73.30;;;;;;5093464;28;20443;-87
2023/09/25 10:30:06;;;;;;;1.20;1.10;;;26.60;73.40;;;;;;5093489;28;20534;-87
2023/09/25 10:32:38;;;;;;;1.07;0.80;;;26.70;73.40;;;;;;5093366;28;20423;-87
2023/09/25 10:35:37;;;;;;;1.10;0.83;;;26.70;73.40;;;;;;5093525;28;20507;-87
2023/09/25 10:38:11;;;;;;;1.07;0.83;;;26.70;73.40;;;;;;5093449;28;20435;-87
2023/09/25 10:40:38;;;;;;;1.20;0.90;;;26.70;73.40;;;;;;5093141;28;20565;-87
2023/09/25 10:43:06;;;;;;;1.13;0.97;;;26.80;73.50;;;;;;5093490;28;20463;-87
2023/09/25 10:45:34;;;;;;;1.50;1.10;;;26.80;73.60;;;;;;5093286;28;20518;-87
2023/09/25 10:48:02;;;;;;;1.10;0.90;;;26.80;73.60;;;;;;5093333;28;20440;-87
2023/09/25 10:50:29;;;;;;;1.20;0.93;;;26.80;73.50;;;;;;5093334;28;20534;-87
2023/09/25 10:52:57;;;;;;;1.20;0.90;;;26.80;73.40;;;;;;5093170;28;20436;-87
2023/09/25 10:55:24;;;;;;;1.97;1.00;;;26.90;73.50;;;;;;5093173;28;20810;-87
2023/09/25 10:57:51;;;;;;;1.57;0.87;;;26.90;73.50;;;;;;5093087;28;20542;-87
2023/09/25 11:00:19;;;;;;;1.23;1.10;;;26.90;73.40;;;;;;5093073;28;20594;-87
2023/09/25 11:02:46;;;;;;;1.13;1.00;;;27.00;73.50;;;;;;5093166;28;20510;-87
2023/09/25 11:05:15;;;;;;;1.30;0.90;;;26.90;73.50;;;;;;5093083;28;20438;-87
2023/09/25 11:07:42;;;;;;;1.13;0.90;;;27.00;73.60;;;;;;5093148;28;20531;-87
2023/09/25 11:10:10;;;;;;;1.20;1.00;;;27.00;73.60;;;;;;5093149;28;20530;-87
2023/09/25 11:12:37;;;;;;;1.50;0.93;;;27.00;73.50;;;;;;5092899;28;20779;-87
2023/09/25 11:15:10;;;;;;;1.30;0.90;;;27.00;73.60;;;;;;5093037;28;20431;-87
2023/09/25 11:17:37;;;;;;;1.40;0.97;;;27.00;73.60;;;;;;5092981;28;20428;-87
2023/09/25 11:20:16;;;;;;;1.30;0.90;;;27.10;73.60;;;;;;5092689;28;20559;-87
2023/09/25 11:22:46;;;;;;;2.30;1.03;;;27.10;73.60;;;;;;5092971;28;20439;-87
2023/09/25 11:25:15;;;;;;;1.20;0.90;;;27.10;73.70;;;;;;5092947;28;20443;-87
2023/09/25 11:27:53;;;;;;;1.10;0.90;;;27.10;73.60;;;;;;5092856;28;20471;-87
2023/09/25 11:30:20;;;;;;;1.00;0.80;;;27.10;73.60;;;;;;5093763;28;20957;-87
2023/09/25 11:32:49;;;;;;;1.10;0.83;;;27.10;73.50;;;;;;5096713;28;20433;-87
2023/09/25 11:35:18;;;;;;;1.10;0.90;;;27.10;73.60;;;;;;5096778;28;20530;-87
2023/09/25 11:38:03;;;;;;;1.20;0.90;;;27.20;73.60;;;;;;5096697;28;20534;-87
2023/09/25 11:40:31;;;;;;;1.20;1.00;;;27.20;73.50;;;;;;5096540;28;20474;-87
2023/09/25 11:42:58;;;;;;;1.77;1.10;;;27.20;73.60;;;;;;5096484;28;20471;-87
2023/09/25 11:45:25;;;;;;;1.77;0.90;;;27.20;73.60;;;;;;5096607;28;20475;-87
2023/09/25 11:47:53;;;;;;;1.20;1.07;;;27.20;73.60;;;;;;5096472;28;20930;-87
2023/09/25 11:50:19;;;;;;;1.27;1.17;;;27.20;73.60;;;;;;5096505;28;20538;-87
2023/09/25 11:52:47;;;;;;;1.23;0.90;;;27.20;73.60;;;;;;5096335;28;20474;-87
2023/09/25 11:55:15;;;;;;;1.20;0.90;;;27.20;73.60;;;;;;5096412;28;20445;-87
2023/09/25 11:57:43;;;;;;;1.40;1.10;;;27.20;73.60;;;;;;5096292;28;20785;-87
2023/09/25 12:00:12;;;;;;;1.13;0.90;;;27.20;74.40;;;;;;5096140;28;20482;-87
2023/09/25 12:02:40;;;;;;;1.10;0.80;;;27.20;73.60;;;;;;5096142;28;20560;-87
2023/09/25 12:05:08;;;;;;;1.20;1.00;;;27.20;73.60;;;;;;5096158;28;20439;-87
2023/09/25 12:07:36;;;;;;;1.20;0.90;;;27.20;73.60;;;;;;5096267;28;20436;-87
2023/09/25 12:10:04;;;;;;;1.20;0.90;;;27.20;73.70;;;;;;5096128;28;20512;-87
2023/09/25 12:12:32;;;;;;;1.30;0.90;;;27.20;73.60;;;;;;5095927;28;20435;-87
2023/09/25 12:14:59;;;;;;;1.10;0.80;;;27.20;73.70;;;;;;5096073;28;20526;-87
2023/09/25 12:17:26;;;;;;;1.53;1.03;;;27.20;73.70;;;;;;5095918;28;20511;-87
2023/09/25 12:19:53;;;;;;;1.10;0.90;;;27.20;73.70;;;;;;5095650;28;20558;-87
2023/09/25 12:22:20;;;;;;;1.30;0.90;;;27.20;73.70;;;;;;5095712;28;20479;-87
2023/09/25 12:24:47;;;;;;;1.40;0.93;;;27.20;73.70;;;;;;5095753;28;20530;-87
2023/09/25 12:27:14;;;;;;;1.20;1.00;;;27.20;73.80;;;;;;5095940;28;20517;-87
2023/09/25 12:29:43;;;;;;;1.30;1.00;;;27.20;73.80;;;;;;5095553;28;20452;-87
2023/09/25 12:32:10;;;;;;;1.10;1.00;;;27.30;73.80;;;;;;5095473;28;20443;-87
2023/09/25 12:34:37;;;;;;;1.17;0.90;;;27.20;73.70;;;;;;5095760;28;20463;-87
2023/09/25 12:37:04;;;;;;;1.20;0.90;;;27.30;73.70;;;;;;5095637;28;20519;-87
2023/09/25 12:39:31;;;;;;;1.10;0.80;;;27.30;73.70;;;;;;5095537;28;20438;-87
2023/09/25 12:41:58;;;;;;;1.30;0.97;;;27.30;73.80;;;;;;5094552;28;20513;-87
2023/09/25 12:44:25;;;;;;;1.10;0.90;;;27.20;73.70;;;;;;5095464;28;20439;-87
2023/09/25 12:46:54;;;;;;;1.20;1.00;;;27.30;73.80;;;;;;5095432;28;20531;-87
2023/09/25 12:49:20;;;;;;;1.13;0.87;;;27.30;73.80;;;;;;5095375;28;20522;-87
2023/09/25 12:51:47;;;;;;;1.27;0.90;;;27.30;73.80;;;;;;5095119;28;20447;-87